Time;durP1;ratioP1;P1;durP2;ratioP2;P2;SDS_P1;SDS_P2;PMS_P1;PMS_P2;Temp;Humidity;BMP_temperature;BMP_pressure;BME280_temperature;BME280_humidity;BME280_pressure;Samples;Min_cycle;Max_cycle;Signal;HPM_P1;HPM_P2
2024/04/14 00:00:16;;;;;;;26.08;9.25;;;486.40;2380.80;;;;;;5419584;26;19995;-73
2024/04/14 00:02:41;;;;;;;19.40;8.57;;;486.40;2355.20;;;;;;5417619;26;20430;-72
2024/04/14 00:05:08;;;;;;;20.08;8.05;;;486.40;2355.20;;;;;;5389474;26;20007;-75
2024/04/14 00:07:33;;;;;;;15.55;8.82;;;486.50;2355.20;;;;;;5383604;26;20004;-75
2024/04/14 00:09:59;;;;;;;17.13;8.63;;;486.60;2355.20;;;;;;5416103;26;19995;-73
2024/04/14 00:12:25;;;;;;;18.25;7.70;;;486.60;2355.20;;;;;;5419303;26;20052;-73
2024/04/14 00:14:51;;;;;;;17.33;8.95;;;486.60;2355.20;;;;;;5418865;26;20006;-74
2024/04/14 00:17:17;;;;;;;13.05;7.95;;;486.60;2355.20;;;;;;5419124;26;20077;-73
2024/04/14 00:19:43;;;;;;;17.42;8.52;;;486.50;2355.20;;;;;;5418928;26;19992;-73
2024/04/14 00:22:09;;;;;;;23.45;9.40;;;486.50;2355.20;;;;;;5399223;26;20073;-73
2024/04/14 00:24:35;;;;;;;12.13;8.35;;;461.70;2380.80;;;;;;5414857;26;19995;-73
2024/04/14 00:27:01;;;;;;;18.48;9.57;;;461.50;2380.80;;;;;;5418868;26;20014;-73
2024/04/14 00:29:27;;;;;;;18.00;8.70;;;461.40;2380.80;;;;;;5419063;26;20041;-76
2024/04/14 00:31:53;;;;;;;21.52;9.90;;;461.40;2380.80;;;;;;5418781;26;20000;-73
2024/04/14 00:34:21;;;;;;;18.63;8.90;;;461.40;2380.80;;;;;;5418564;26;19996;-73
2024/04/14 00:36:46;;;;;;;14.40;9.23;;;461.40;2380.80;;;;;;5418846;26;19999;-73
2024/04/14 00:39:12;;;;;;;18.05;8.65;;;461.30;2380.80;;;;;;5418814;26;20010;-73
2024/04/14 00:41:38;;;;;;;19.10;9.90;;;461.10;2380.80;;;;;;5418964;26;20435;-75
2024/04/14 00:44:04;;;;;;;17.52;9.07;;;461.10;2380.80;;;;;;5418939;26;20007;-73
2024/04/14 00:46:30;;;;;;;13.80;9.30;;;461.10;2380.80;;;;;;5418802;26;20050;-73
2024/04/14 00:48:56;;;;;;;16.73;10.10;;;461.00;2380.80;;;;;;5418613;26;19991;-76
2024/04/14 00:51:24;;;;;;;19.25;9.90;;;461.00;2380.80;;;;;;5418025;26;20000;-73
2024/04/14 00:53:50;;;;;;;15.80;10.48;;;461.00;2380.80;;;;;;5418300;26;19999;-72
2024/04/14 00:56:17;;;;;;;22.83;10.15;;;460.80;2380.80;;;;;;5418530;26;20136;-76
2024/04/14 00:58:44;;;;;;;14.75;9.60;;;460.80;2380.80;;;;;;5418713;26;20094;-73
2024/04/14 01:01:11;;;;;;;22.25;10.10;;;460.80;2380.80;;;;;;5418539;26;20448;-75
2024/04/14 01:03:37;;;;;;;20.95;10.52;;;460.80;2380.80;;;;;;5418756;26;19995;-73
2024/04/14 01:06:03;;;;;;;25.83;9.80;;;460.90;2380.80;;;;;;5418515;26;20320;-73
2024/04/14 01:08:29;;;;;;;18.80;11.05;;;461.00;2380.80;;;;;;5418296;26;20614;-76
2024/04/14 01:10:54;;;;;;;15.25;9.98;;;461.10;2380.80;;;;;;5418165;26;20010;-73
2024/04/14 01:13:20;;;;;;;25.70;11.40;;;461.00;2380.80;;;;;;5418614;26;20365;-73
2024/04/14 01:15:46;;;;;;;25.00;10.85;;;460.80;2380.80;;;;;;5417932;26;20010;-74
2024/04/14 01:18:12;;;;;;;23.23;11.13;;;460.90;2380.80;;;;;;5418312;26;20006;-74
2024/04/14 01:20:39;;;;;;;18.33;11.25;;;461.00;2380.80;;;;;;5418275;26;20377;-74
2024/04/14 01:23:05;;;;;;;28.35;12.05;;;461.10;2380.80;;;;;;5417781;26;20003;-74
2024/04/14 01:25:31;;;;;;;19.17;11.07;;;461.10;2380.80;;;;;;5417911;26;20004;-74
2024/04/14 01:27:57;;;;;;;14.88;10.57;;;460.80;2380.80;;;;;;5418077;26;20458;-74
2024/04/14 01:30:23;;;;;;;22.10;11.07;;;460.80;2380.80;;;;;;5417811;26;20443;-73
2024/04/14 01:32:50;;;;;;;27.38;12.73;;;460.90;2380.80;;;;;;5418341;26;20446;-72
2024/04/14 01:35:16;;;;;;;25.98;11.98;;;460.90;2380.80;;;;;;5417441;26;20080;-73
2024/04/14 01:37:42;;;;;;;25.30;11.70;;;460.80;2380.80;;;;;;5417929;26;20080;-74
2024/04/14 01:40:08;;;;;;;22.90;11.75;;;436.10;2355.20;;;;;;5418291;26;20003;-72
2024/04/14 01:42:34;;;;;;;20.95;11.80;;;436.00;2355.20;;;;;;5417619;26;19999;-73
2024/04/14 01:45:00;;;;;;;18.30;11.30;;;436.10;2355.20;;;;;;5418187;26;20439;-74
2024/04/14 01:47:26;;;;;;;24.85;13.50;;;435.90;2355.20;;;;;;5417672;26;20000;-73
2024/04/14 01:49:52;;;;;;;26.50;11.85;;;435.60;2355.20;;;;;;5417589;26;20014;-73
2024/04/14 01:52:18;;;;;;;21.23;10.75;;;435.30;2355.20;;;;;;5417776;26;20006;-73
2024/04/14 01:54:44;;;;;;;20.70;11.98;;;435.30;2355.20;;;;;;5417506;26;19999;-75
2024/04/14 01:57:09;;;;;;;19.50;12.00;;;435.60;2355.20;;;;;;5417787;26;20431;-76
2024/04/14 01:59:37;;;;;;;22.30;12.55;;;435.60;2355.20;;;;;;5417146;26;20000;-73
2024/04/14 02:02:02;;;;;;;21.92;11.52;;;435.70;2355.20;;;;;;5417787;26;20007;-77
2024/04/14 02:04:28;;;;;;;21.40;11.68;;;435.60;2355.20;;;;;;5415572;26;20003;-77
2024/04/14 02:06:54;;;;;;;20.17;10.95;;;435.60;2355.20;;;;;;5417460;26;19999;-76
2024/04/14 02:09:20;;;;;;;19.48;11.68;;;435.40;2355.20;;;;;;5417427;26;20003;-76
2024/04/14 02:11:46;;;;;;;16.42;11.73;;;435.30;2355.20;;;;;;5417616;26;20072;-72
2024/04/14 02:14:12;;;;;;;20.95;11.00;;;435.30;2355.20;;;;;;5417567;26;20439;-77
2024/04/14 02:16:37;;;;;;;19.23;11.65;;;410.40;2355.20;;;;;;5417550;26;20006;-76
2024/04/14 02:19:03;;;;;;;21.05;11.70;;;410.50;2355.20;;;;;;5417023;26;20004;-73
2024/04/14 02:21:29;;;;;;;19.95;11.48;;;410.40;2355.20;;;;;;5417441;26;19995;-72
2024/04/14 02:23:55;;;;;;;16.65;11.10;;;410.30;2355.20;;;;;;5417275;26;20000;-74
2024/04/14 02:26:21;;;;;;;16.85;10.68;;;410.30;2355.20;;;;;;5417582;26;20318;-73
2024/04/14 02:28:46;;;;;;;15.82;9.18;;;410.30;2355.20;;;;;;5416785;26;20015;-76
2024/04/14 02:31:12;;;;;;;19.67;9.98;;;410.10;2355.20;;;;;;5414889;26;20500;-76
2024/04/14 02:33:41;;;;;;;18.80;9.80;;;409.80;2355.20;;;;;;5416812;26;20046;-74
2024/04/14 02:36:07;;;;;;;17.52;9.95;;;409.60;2355.20;;;;;;5408807;26;20007;-72
2024/04/14 02:38:33;;;;;;;20.38;9.35;;;409.60;2355.20;;;;;;5408293;26;20004;-73
2024/04/14 02:41:04;;;;;;;20.80;9.73;;;409.80;2355.20;;;;;;5416995;26;19995;-76
2024/04/14 02:43:34;;;;;;;19.80;9.35;;;410.00;2355.20;;;;;;5416894;26;20011;-73
2024/04/14 02:46:00;;;;;;;22.70;10.15;;;409.90;2355.20;;;;;;5417153;26;20000;-73
2024/04/14 02:48:26;;;;;;;27.02;9.57;;;409.70;2355.20;;;;;;5416501;26;20011;-77
2024/04/14 02:50:52;;;;;;;22.40;9.90;;;409.60;2355.20;;;;;;5416899;26;20447;-74
2024/04/14 02:53:18;;;;;;;20.80;9.88;;;409.70;2355.20;;;;;;5416543;26;20014;-74
2024/04/14 02:55:44;;;;;;;20.52;9.48;;;409.70;2355.20;;;;;;5416599;26;20006;-76
2024/04/14 02:58:10;;;;;;;21.92;11.20;;;409.80;2355.20;;;;;;5416646;26;20000;-74
2024/04/14 03:00:36;;;;;;;30.48;11.00;;;409.90;2355.20;;;;;;5408218;26;20000;-73
2024/04/14 03:03:02;;;;;;;22.27;10.15;;;410.00;2355.20;;;;;;5410658;26;20010;-72
2024/04/14 03:05:28;;;;;;;20.05;9.73;;;409.90;2355.20;;;;;;5416547;26;19996;-73
2024/04/14 03:07:54;;;;;;;23.75;9.55;;;410.00;2355.20;;;;;;5415841;26;20008;-73
2024/04/14 03:10:20;;;;;;;23.13;9.68;;;410.00;2355.20;;;;;;5416781;26;20427;-73
2024/04/14 03:12:46;;;;;;;16.45;8.70;;;410.00;2355.20;;;;;;5416641;26;20018;-73
2024/04/14 03:15:12;;;;;;;21.00;9.48;;;409.90;2355.20;;;;;;5417454;26;20368;-73
2024/04/14 03:17:39;;;;;;;21.42;10.35;;;409.90;2355.20;;;;;;5420196;26;20009;-73
2024/04/14 03:20:06;;;;;;;20.15;8.75;;;410.00;2355.20;;;;;;5420400;26;19995;-75
2024/04/14 03:22:32;;;;;;;22.73;9.50;;;410.00;2355.20;;;;;;5420160;26;20043;-73
2024/04/14 03:24:58;;;;;;;23.95;10.90;;;409.90;2355.20;;;;;;5419946;26;20010;-73
2024/04/14 03:27:24;;;;;;;19.52;9.68;;;409.90;2355.20;;;;;;5419781;26;20018;-73
2024/04/14 03:29:49;;;;;;;15.35;9.00;;;409.80;2355.20;;;;;;5417882;26;20465;-73
2024/04/14 03:32:15;;;;;;;22.25;11.05;;;409.90;2355.20;;;;;;5419683;26;19999;-73
2024/04/14 03:34:44;;;;;;;17.35;9.40;;;409.80;2355.20;;;;;;5419674;26;20006;-74
2024/04/14 03:37:13;;;;;;;25.55;9.75;;;409.80;2355.20;;;;;;5419916;26;19996;-73
2024/04/14 03:39:39;;;;;;;26.15;10.73;;;409.60;2355.20;;;;;;5419546;26;19992;-73
2024/04/14 03:42:05;;;;;;;19.67;8.23;;;409.60;2355.20;;;;;;5419638;26;20023;-76
2024/04/14 03:44:31;;;;;;;19.42;9.70;;;409.60;2355.20;;;;;;5419637;26;20393;-73
2024/04/14 03:46:57;;;;;;;20.52;9.75;;;409.70;2355.20;;;;;;5419389;26;19999;-72
2024/04/14 03:49:23;;;;;;;19.52;9.32;;;409.60;2355.20;;;;;;5419663;26;20010;-74
2024/04/14 03:51:48;;;;;;;18.13;9.40;;;409.70;2355.20;;;;;;5419661;26;19996;-73
2024/04/14 03:54:14;;;;;;;24.40;9.50;;;384.90;2329.60;;;;;;5419343;26;19991;-73
2024/04/14 03:56:40;;;;;;;16.08;9.70;;;409.60;2355.20;;;;;;5418919;26;20072;-76
2024/04/14 03:59:06;;;;;;;21.98;8.80;;;409.60;2355.20;;;;;;5419752;26;20014;-76
2024/04/14 04:01:32;;;;;;;15.07;9.23;;;409.70;2355.20;;;;;;5418977;26;20010;-75
2024/04/14 04:03:58;;;;;;;20.00;9.55;;;409.70;2355.20;;;;;;5419350;26;19996;-73
2024/04/14 04:06:24;;;;;;;15.63;8.75;;;409.70;2355.20;;;;;;5419386;26;20082;-76
2024/04/14 04:08:50;;;;;;;19.20;9.65;;;409.70;2355.20;;;;;;5418950;26;20003;-74
2024/04/14 04:11:16;;;;;;;15.05;8.50;;;409.70;2355.20;;;;;;5419302;26;20000;-73
2024/04/14 04:13:42;;;;;;;15.65;8.50;;;409.90;2355.20;;;;;;5419261;26;20007;-73
2024/04/14 04:16:08;;;;;;;21.50;8.77;;;409.90;2355.20;;;;;;5419034;26;19999;-74
2024/04/14 04:18:35;;;;;;;21.35;8.73;;;409.70;2355.20;;;;;;5419028;26;20035;-75
2024/04/14 04:21:05;;;;;;;20.88;9.02;;;409.70;2355.20;;;;;;5399150;26;20008;-73
2024/04/14 04:23:31;;;;;;;16.10;8.00;;;409.80;2355.20;;;;;;5406472;26;20006;-72
2024/04/14 04:25:59;;;;;;;16.30;8.93;;;410.00;2355.20;;;;;;5388084;26;20435;-73
2024/04/14 04:28:27;;;;;;;13.40;9.10;;;410.00;2355.20;;;;;;5412664;26;19995;-73
2024/04/14 04:30:53;;;;;;;47.80;20.42;;;410.30;2355.20;;;;;;5406519;26;19995;-74
2024/04/14 04:33:19;;;;;;;17.02;8.65;;;410.40;2355.20;;;;;;5400716;26;20076;-73
2024/04/14 04:35:56;;;;;;;29.85;14.45;;;410.30;2355.20;;;;;;5388441;26;20028;-73
2024/04/14 04:38:25;;;;;;;39.10;19.08;;;410.40;2355.20;;;;;;5404324;26;20003;-74
2024/04/14 04:40:52;;;;;;;19.90;10.52;;;410.40;2355.20;;;;;;5402420;26;19999;-77
2024/04/14 04:43:23;;;;;;;14.52;8.63;;;410.50;2355.20;;;;;;5401362;26;19999;-74
2024/04/14 04:45:50;;;;;;;13.00;7.50;;;410.50;2355.20;;;;;;5400290;26;19996;-75
2024/04/14 04:48:15;;;;;;;13.65;6.88;;;435.20;2355.20;;;;;;5398500;26;20073;-74
2024/04/14 04:50:48;;;;;;;12.63;7.35;;;435.20;2355.20;;;;;;5405780;26;20008;-73
2024/04/14 04:53:14;;;;;;;11.77;6.60;;;435.30;2355.20;;;;;;5394730;26;20008;-72
2024/04/14 04:55:41;;;;;;;12.05;7.72;;;435.30;2355.20;;;;;;5394148;26;20004;-74
2024/04/14 04:58:07;;;;;;;12.15;8.00;;;435.50;2355.20;;;;;;5389837;26;20069;-76
2024/04/14 05:00:33;;;;;;;10.52;6.55;;;435.60;2355.20;;;;;;5393990;26;20008;-77
2024/04/14 05:02:58;;;;;;;14.52;7.18;;;435.70;2355.20;;;;;;5405447;26;20431;-76
2024/04/14 05:05:24;;;;;;;14.40;7.28;;;435.80;2355.20;;;;;;5392736;26;20014;-77
2024/04/14 05:07:50;;;;;;;14.18;7.32;;;435.90;2355.20;;;;;;5385336;26;19996;-75
2024/04/14 05:10:16;;;;;;;12.80;6.85;;;436.00;2355.20;;;;;;5390853;26;19996;-74
2024/04/14 05:12:42;;;;;;;11.40;7.75;;;436.10;2355.20;;;;;;5387641;26;20007;-74
2024/04/14 05:15:08;;;;;;;13.60;8.60;;;460.80;2380.80;;;;;;5387337;26;20490;-73
2024/04/14 05:17:33;;;;;;;14.00;7.65;;;460.80;2380.80;;;;;;5400427;26;19999;-74
2024/04/14 05:19:59;;;;;;;14.63;7.82;;;460.90;2380.80;;;;;;5393651;26;20331;-75
2024/04/14 05:22:25;;;;;;;15.70;7.03;;;461.00;2380.80;;;;;;5410717;26;20063;-74
2024/04/14 05:24:51;;;;;;;11.68;7.07;;;461.00;2380.80;;;;;;5389221;26;20022;-76
2024/04/14 05:27:19;;;;;;;15.90;7.60;;;461.00;2380.80;;;;;;5391829;26;20014;-74
2024/04/14 05:29:48;;;;;;;12.70;7.45;;;461.00;2380.80;;;;;;5394396;26;20000;-74
2024/04/14 05:32:15;;;;;;;16.30;7.88;;;461.10;2380.80;;;;;;5410644;26;19992;-76
2024/04/14 05:34:41;;;;;;;13.02;7.55;;;461.10;2380.80;;;;;;5404487;26;19999;-76
2024/04/14 05:37:08;;;;;;;19.38;8.55;;;461.20;2380.80;;;;;;5387433;26;20000;-76
2024/04/14 05:39:34;;;;;;;13.88;7.60;;;461.20;2380.80;;;;;;5387477;26;20005;-76
2024/04/14 05:42:00;;;;;;;15.10;7.22;;;461.30;2380.80;;;;;;5400312;26;20007;-77
2024/04/14 05:44:26;;;;;;;17.90;8.25;;;461.30;2380.80;;;;;;5398711;26;20003;-75
2024/04/14 05:46:53;;;;;;;11.43;7.85;;;461.50;2380.80;;;;;;5396450;26;19996;-76
2024/04/14 05:49:20;;;;;;;14.10;6.93;;;461.50;2380.80;;;;;;5383115;26;19996;-76
2024/04/14 05:51:48;;;;;;;17.35;7.15;;;461.60;2380.80;;;;;;5405184;26;19996;-76
2024/04/14 05:54:14;;;;;;;11.45;6.10;;;461.70;2380.80;;;;;;5393998;26;19995;-75
2024/04/14 05:56:40;;;;;;;13.07;7.38;;;486.40;2380.80;;;;;;5399573;26;20014;-77
2024/04/14 05:59:06;;;;;;;9.73;6.65;;;486.50;2380.80;;;;;;5397277;26;20008;-75
2024/04/14 06:01:32;;;;;;;10.30;5.65;;;486.70;2380.80;;;;;;5389362;26;20455;-76
2024/04/14 06:03:58;;;;;;;15.57;6.00;;;486.80;2380.80;;;;;;5398961;26;20000;-76
2024/04/14 06:06:24;;;;;;;14.52;5.93;;;487.00;2380.80;;;;;;5390727;26;20004;-76
2024/04/14 06:08:52;;;;;;;9.32;4.68;;;487.20;2380.80;;;;;;5386752;26;20004;-76
2024/04/14 06:11:18;;;;;;;10.77;5.15;;;487.30;2380.80;;;;;;5400475;26;20436;-75
2024/04/14 06:13:44;;;;;;;6.70;4.32;;;512.10;2380.80;;;;;;5394041;26;20042;-75
2024/04/14 06:16:10;;;;;;;7.68;4.63;;;512.30;2380.80;;;;;;5398859;26;20440;-76
2024/04/14 06:18:36;;;;;;;7.35;4.68;;;512.50;2380.80;;;;;;5401623;26;20011;-75
2024/04/14 06:21:03;;;;;;;7.97;4.22;;;512.80;2380.80;;;;;;5393796;26;20004;-76
2024/04/14 06:23:29;;;;;;;8.35;3.63;;;512.90;2380.80;;;;;;5395948;26;20389;-74
2024/04/14 06:25:55;;;;;;;9.90;4.13;;;537.70;2406.40;;;;;;5396262;26;20011;-75
2024/04/14 06:28:21;;;;;;;11.15;4.05;;;537.90;2355.20;;;;;;5394839;26;20444;-74
2024/04/14 06:30:47;;;;;;;7.22;3.50;;;538.10;2329.60;;;;;;5406632;26;20000;-76
2024/04/14 06:33:13;;;;;;;6.85;4.22;;;538.20;2252.80;;;;;;5387186;26;20023;-77
2024/04/14 06:35:38;;;;;;;6.60;3.95;;;538.40;2252.80;;;;;;5397400;26;20432;-76
2024/04/14 06:38:05;;;;;;;8.88;4.13;;;563.20;2201.60;;;;;;5396773;26;20000;-75
2024/04/14 06:40:31;;;;;;;8.90;3.70;;;563.30;2201.60;;;;;;5395991;26;20000;-76
2024/04/14 06:42:57;;;;;;;10.73;4.15;;;563.40;2124.80;;;;;;5402785;26;20323;-77
2024/04/14 06:45:23;;;;;;;12.30;3.80;;;563.60;2124.80;;;;;;5407008;26;19999;-75
2024/04/14 06:47:49;;;;;;;9.32;4.05;;;563.60;2048.00;;;;;;5399778;26;20520;-74
2024/04/14 06:50:15;;;;;;;6.15;4.03;;;563.70;2022.40;;;;;;5394139;26;20036;-75
2024/04/14 06:52:40;;;;;;;7.30;3.63;;;563.80;1996.80;;;;;;5412434;26;19996;-75
2024/04/14 06:55:06;;;;;;;9.80;3.47;;;563.90;1971.20;;;;;;5404682;26;19999;-76
2024/04/14 06:57:32;;;;;;;8.43;4.68;;;564.00;1971.20;;;;;;5411000;26;19999;-77
2024/04/14 06:59:58;;;;;;;12.15;3.72;;;564.10;2022.40;;;;;;5390735;26;20015;-74
2024/04/14 07:02:24;;;;;;;9.10;3.40;;;588.80;2073.60;;;;;;5408764;26;20356;-75
2024/04/14 07:04:49;;;;;;;7.40;4.28;;;588.90;2048.00;;;;;;5400562;26;20084;-74
2024/04/14 07:07:15;;;;;;;9.23;4.10;;;588.90;2022.40;;;;;;5396952;26;20039;-76
2024/04/14 07:09:41;;;;;;;7.68;3.60;;;589.10;2022.40;;;;;;5401715;26;20352;-77
2024/04/14 07:12:07;;;;;;;9.63;4.10;;;589.30;1971.20;;;;;;5401898;26;20007;-76
2024/04/14 07:14:34;;;;;;;9.65;4.60;;;614.40;2022.40;;;;;;5406977;26;20004;-78
2024/04/14 07:17:00;;;;;;;7.68;4.00;;;614.70;1971.20;;;;;;5397152;26;20007;-75
2024/04/14 07:19:26;;;;;;;7.22;4.18;;;614.70;1971.20;;;;;;5403175;26;20008;-75
2024/04/14 07:21:51;;;;;;;9.75;4.00;;;615.00;1894.40;;;;;;5403130;26;20007;-74
2024/04/14 07:24:17;;;;;;;10.65;3.60;;;615.20;1843.20;;;;;;5396602;26;19992;-76
2024/04/14 07:26:43;;;;;;;5.57;3.33;;;615.20;1817.60;;;;;;5390360;26;20328;-74
2024/04/14 07:29:09;;;;;;;8.02;4.10;;;640.00;1766.40;;;;;;5406333;26;20007;-73
2024/04/14 07:31:35;;;;;;;9.02;3.90;;;640.00;1792.00;;;;;;5396871;26;19997;-76
2024/04/14 07:34:02;;;;;;;8.25;4.25;;;615.30;1817.60;;;;;;5402770;26;19996;-76
2024/04/14 07:36:28;;;;;;;9.10;4.03;;;640.20;1740.80;;;;;;5401842;26;20455;-75
2024/04/14 07:38:54;;;;;;;5.85;3.80;;;640.70;1664.00;;;;;;5395258;26;20359;-76
2024/04/14 07:41:20;;;;;;;11.02;3.63;;;640.60;1638.40;;;;;;5396259;26;20012;-74
2024/04/14 07:43:49;;;;;;;7.70;3.30;;;640.80;1612.80;;;;;;5402350;26;20015;-74
2024/04/14 07:46:15;;;;;;;8.73;2.72;;;665.60;1638.40;;;;;;5398601;26;20381;-78
2024/04/14 07:48:42;;;;;;;6.60;3.22;;;665.60;1561.60;;;;;;5399106;26;20003;-74
2024/04/14 07:51:08;;;;;;;6.13;3.30;;;640.70;1561.60;;;;;;5388628;26;20019;-74
2024/04/14 07:53:34;;;;;;;6.63;3.80;;;665.70;1561.60;;;;;;5390150;26;20428;-77
2024/04/14 07:56:00;;;;;;;8.00;2.80;;;666.00;1536.00;;;;;;5385799;26;20000;-73
2024/04/14 07:58:26;;;;;;;5.50;3.50;;;666.00;1561.60;;;;;;5387979;26;20008;-76
2024/04/14 08:00:52;;;;;;;12.07;4.15;;;666.00;1561.60;;;;;;5394389;26;20455;-75
2024/04/14 08:03:18;;;;;;;16.90;9.50;;;666.30;1587.20;;;;;;5396094;26;20452;-75
2024/04/14 08:05:44;;;;;;;10.48;4.55;;;666.50;1536.00;;;;;;5396058;26;20008;-77
2024/04/14 08:08:10;;;;;;;5.63;3.10;;;691.70;1484.80;;;;;;5409417;26;20006;-75
2024/04/14 08:10:36;;;;;;;5.82;2.63;;;691.30;1459.20;;;;;;5405988;26;20007;-77
2024/04/14 08:13:02;;;;;;;6.57;3.40;;;691.60;1433.60;;;;;;5390537;26;19996;-76
2024/04/14 08:15:28;;;;;;;7.85;3.25;;;691.40;1433.60;;;;;;5401414;26;20077;-76
2024/04/14 08:17:57;;;;;;;4.60;3.20;;;691.60;1408.00;;;;;;5397617;26;20497;-76
2024/04/14 08:20:24;;;;;;;14.38;2.88;;;691.90;1356.80;;;;;;5411423;26;19996;-74
2024/04/14 08:22:50;;;;;;;11.60;4.30;;;692.10;1356.80;;;;;;5396248;26;20011;-75
2024/04/14 08:25:16;;;;;;;7.20;2.70;;;692.10;1382.40;;;;;;5410612;26;20006;-75
2024/04/14 08:27:45;;;;;;;7.53;2.80;;;716.90;1331.20;;;;;;5405679;26;20323;-75
2024/04/14 08:30:11;;;;;;;5.50;2.47;;;717.10;1331.20;;;;;;5399515;26;20432;-75
2024/04/14 08:32:37;;;;;;;6.88;3.05;;;717.30;1280.00;;;;;;5403464;26;20016;-75
2024/04/14 08:35:03;;;;;;;6.32;3.20;;;717.40;1305.60;;;;;;5394146;26;20385;-75
2024/04/14 08:37:34;;;;;;;9.68;2.78;;;717.70;1305.60;;;;;;5399920;26;20077;-76
2024/04/14 08:40:00;;;;;;;4.90;2.42;;;717.50;1280.00;;;;;;5393663;26;20335;-76
2024/04/14 08:42:28;;;;;;;6.00;2.38;;;717.20;1280.00;;;;;;5401979;26;19991;-76
2024/04/14 08:44:55;;;;;;;5.13;2.95;;;717.70;1280.00;;;;;;5404934;26;20003;-75
2024/04/14 08:47:22;;;;;;;6.85;3.00;;;717.50;1280.00;;;;;;5399391;26;20067;-75
2024/04/14 08:49:49;;;;;;;5.03;3.15;;;717.30;1331.20;;;;;;5399613;26;20000;-74
2024/04/14 08:52:15;;;;;;;7.28;2.78;;;717.40;1331.20;;;;;;5393561;26;20004;-75
2024/04/14 08:54:42;;;;;;;4.78;2.97;;;717.70;1305.60;;;;;;5393184;26;20003;-77
2024/04/14 08:57:10;;;;;;;9.52;3.00;;;742.50;1356.80;;;;;;5402565;26;20102;-76
2024/04/14 08:59:40;;;;;;;11.13;2.85;;;742.40;1356.80;;;;;;5395204;26;20051;-75
2024/04/14 09:02:09;;;;;;;6.78;2.83;;;742.50;1382.40;;;;;;5399079;26;19992;-77
2024/04/14 09:04:35;;;;;;;7.00;3.17;;;742.40;1356.80;;;;;;5392953;26;20023;-75
2024/04/14 09:07:01;;;;;;;8.55;3.45;;;742.60;1382.40;;;;;;5389851;26;19995;-75
2024/04/14 09:09:27;;;;;;;9.35;3.25;;;742.90;1382.40;;;;;;5395323;26;20036;-74
2024/04/14 09:11:55;;;;;;;9.90;2.97;;;743.00;1331.20;;;;;;5402667;26;22477;-75
2024/04/14 09:14:22;;;;;;;6.15;3.00;;;743.10;1305.60;;;;;;5394979;26;19992;-75
2024/04/14 09:16:49;;;;;;;6.63;3.20;;;768.00;1305.60;;;;;;5389719;26;20058;-75
2024/04/14 09:19:17;;;;;;;10.48;4.18;;;743.30;1305.60;;;;;;5398535;26;20032;-75
2024/04/14 09:21:47;;;;;;;8.25;3.50;;;743.20;1305.60;;;;;;5391269;26;19997;-74
2024/04/14 09:24:13;;;;;;;5.55;3.83;;;768.00;1305.60;;;;;;5402818;26;19995;-74
2024/04/14 09:26:39;;;;;;;18.88;3.70;;;768.20;1305.60;;;;;;5415596;26;20000;-73
2024/04/14 09:29:06;;;;;;;8.13;3.85;;;768.40;1280.00;;;;;;5397899;26;19996;-78
2024/04/14 09:31:33;;;;;;;4.82;3.58;;;768.60;1228.80;;;;;;5403505;26;19999;-77
2024/04/14 09:33:59;;;;;;;8.32;3.55;;;768.30;1254.40;;;;;;5396534;26;19999;-74
2024/04/14 09:36:26;;;;;;;10.18;3.90;;;768.60;1280.00;;;;;;5404382;26;20003;-74
2024/04/14 09:38:53;;;;;;;7.63;3.40;;;768.60;1280.00;;;;;;5404213;26;19995;-77
2024/04/14 09:41:23;;;;;;;10.82;3.58;;;768.60;1254.40;;;;;;5398388;26;20431;-74
2024/04/14 09:43:53;;;;;;;9.32;3.53;;;768.30;1280.00;;;;;;5405376;26;20000;-74
2024/04/14 09:46:20;;;;;;;5.93;3.47;;;768.40;1254.40;;;;;;5406730;26;20326;-73
2024/04/14 09:48:47;;;;;;;7.38;3.55;;;768.60;1254.40;;;;;;5403714;26;20013;-74
2024/04/14 09:51:14;;;;;;;9.40;3.50;;;768.80;1228.80;;;;;;5401732;26;20504;-74
2024/04/14 09:53:41;;;;;;;11.18;3.90;;;768.70;1228.80;;;;;;5391472;26;20026;-75
2024/04/14 09:56:08;;;;;;;6.38;3.30;;;768.80;1228.80;;;;;;5404792;26;20007;-76
2024/04/14 09:58:34;;;;;;;8.85;3.40;;;768.90;1228.80;;;;;;5400643;26;20004;-75
2024/04/14 10:01:07;;;;;;;7.78;3.53;;;768.90;1254.40;;;;;;5403021;26;20427;-75
2024/04/14 10:03:33;;;;;;;5.22;3.20;;;768.40;1280.00;;;;;;5403053;26;20068;-75
2024/04/14 10:06:01;;;;;;;11.35;3.30;;;768.80;1228.80;;;;;;5395431;26;20015;-74
2024/04/14 10:08:32;;;;;;;8.25;3.65;;;768.80;1254.40;;;;;;5394156;26;20015;-75
2024/04/14 10:11:00;;;;;;;6.18;4.18;;;793.60;1280.00;;;;;;5401056;26;19996;-75
2024/04/14 10:13:26;;;;;;;6.72;3.55;;;;;;;;;;5386318;26;20000;-77
2024/04/14 10:15:57;;;;;;;10.23;3.83;;;794.10;1203.20;;;;;;5398057;26;20318;-73
2024/04/14 10:18:25;;;;;;;8.20;3.10;;;794.20;1203.20;;;;;;5385766;26;19992;-74
2024/04/14 10:20:55;;;;;;;6.05;3.03;;;794.10;1177.60;;;;;;5391155;26;20015;-74
2024/04/14 10:23:21;;;;;;;8.25;3.13;;;794.20;1177.60;;;;;;5392150;26;20000;-75
2024/04/14 10:25:49;;;;;;;8.00;2.95;;;793.80;1177.60;;;;;;5408428;26;20004;-75
2024/04/14 10:28:19;;;;;;;13.10;3.55;;;794.00;1177.60;;;;;;5392580;26;20070;-76
2024/04/14 10:30:45;;;;;;;6.63;3.65;;;794.10;1177.60;;;;;;5403102;26;19996;-76
2024/04/14 10:33:26;;;;;;;6.50;2.65;;;794.50;1228.80;;;;;;5396756;26;20032;-74
2024/04/14 10:36:05;;;;;;;8.07;3.05;;;794.10;1177.60;;;;;;5408311;26;20004;-74
2024/04/14 10:38:33;;;;;;;6.57;2.42;;;819.20;1152.00;;;;;;5400667;26;20000;-75
2024/04/14 10:41:00;;;;;;;4.78;2.50;;;819.70;1100.80;;;;;;5390398;26;20008;-75
2024/04/14 10:43:26;;;;;;;6.22;2.20;;;819.30;1075.20;;;;;;5401011;26;19996;-76
2024/04/14 10:45:52;;;;;;;5.45;2.70;;;794.50;1100.80;;;;;;5407495;26;19999;-75
2024/04/14 10:48:18;;;;;;;9.88;2.55;;;819.30;1075.20;;;;;;5399592;26;20483;-76
2024/04/14 10:50:44;;;;;;;9.52;2.80;;;819.50;1075.20;;;;;;5402115;26;20000;-75
2024/04/14 10:53:10;;;;;;;5.60;2.55;;;819.60;1126.40;;;;;;5411478;26;19996;-77
2024/04/14 10:55:36;;;;;;;8.23;2.85;;;819.40;1126.40;;;;;;5405333;26;20001;-75
2024/04/14 10:58:02;;;;;;;8.15;2.78;;;794.20;1126.40;;;;;;5402087;26;20029;-75
2024/04/14 11:00:29;;;;;;;4.35;2.65;;;794.30;1152.00;;;;;;5402690;26;20000;-77
2024/04/14 11:02:55;;;;;;;6.97;2.95;;;794.40;1126.40;;;;;;5396397;26;20000;-75
2024/04/14 11:05:23;;;;;;;7.07;2.85;;;794.40;1126.40;;;;;;5402134;26;20000;-75
2024/04/14 11:07:50;;;;;;;7.93;3.15;;;819.20;1126.40;;;;;;5403151;26;20381;-76
2024/04/14 11:10:19;;;;;;;5.50;2.97;;;819.50;1126.40;;;;;;5412234;26;20011;-76
2024/04/14 11:12:45;;;;;;;6.18;2.92;;;819.40;1126.40;;;;;;5412295;26;20000;-76
2024/04/14 11:15:10;;;;;;;6.25;3.20;;;819.50;1100.80;;;;;;5392560;26;20082;-76
2024/04/14 11:17:36;;;;;;;7.15;3.40;;;819.60;1100.80;;;;;;5393087;26;20015;-75
2024/04/14 11:20:03;;;;;;;5.97;3.25;;;819.70;1126.40;;;;;;5414217;26;20022;-75
2024/04/14 11:22:31;;;;;;;5.22;3.20;;;819.90;1100.80;;;;;;5399355;26;20000;-75
2024/04/14 11:24:58;;;;;;;8.82;3.15;;;820.00;1100.80;;;;;;5407599;26;20002;-78
2024/04/14 11:27:24;;;;;;;7.20;3.08;;;819.90;1126.40;;;;;;5399609;26;20352;-75
2024/04/14 11:29:51;;;;;;;6.25;3.15;;;820.10;1075.20;;;;;;5398126;26;19995;-75
2024/04/14 11:32:33;;;;;;;9.23;3.15;;;820.10;1100.80;;;;;;5388021;26;20323;-76
2024/04/14 11:35:05;;;;;;;9.93;3.13;;;819.80;1152.00;;;;;;5392866;26;20394;-76
2024/04/14 11:37:32;;;;;;;6.55;2.88;;;820.10;1100.80;;;;;;5416814;26;20335;-75
2024/04/14 11:39:58;;;;;;;6.88;3.22;;;844.90;1100.80;;;;;;5392645;26;20447;-74
2024/04/14 11:42:26;;;;;;;7.50;2.75;;;844.90;1100.80;;;;;;5395332;26;20004;-74
2024/04/14 11:44:52;;;;;;;7.82;3.53;;;819.60;1126.40;;;;;;5393917;26;19996;-74
2024/04/14 11:47:19;;;;;;;4.95;3.00;;;819.80;1100.80;;;;;;5393538;26;20321;-75
2024/04/14 11:49:45;;;;;;;6.85;3.50;;;844.90;1075.20;;;;;;5408735;26;20076;-75
2024/04/14 11:52:11;;;;;;;4.65;2.92;;;845.10;1075.20;;;;;;5401312;26;20398;-73
2024/04/14 11:54:37;;;;;;;12.80;3.75;;;845.10;1075.20;;;;;;5398127;26;20497;-76
2024/04/14 11:57:04;;;;;;;13.90;3.17;;;844.90;1100.80;;;;;;5415970;26;20099;-74
2024/04/14 11:59:32;;;;;;;4.72;2.60;;;844.90;1100.80;;;;;;5403052;26;20010;-74
2024/04/14 12:01:58;;;;;;;7.50;3.20;;;845.00;1075.20;;;;;;5400247;26;20002;-75
2024/04/14 12:04:24;;;;;;;6.43;3.35;;;845.20;1075.20;;;;;;5405066;26;19999;-74
2024/04/14 12:06:50;;;;;;;10.77;3.33;;;844.90;1100.80;;;;;;5406328;26;19995;-74